createdAt,value
2022-11-07T00:02:18.713Z,36.63
2022-11-07T00:04:47.523Z,35.85
2022-11-07T00:07:14.917Z,35.90
2022-11-07T00:09:42.366Z,36.15
2022-11-07T00:12:09.760Z,36.17
2022-11-07T00:14:37.184Z,35.20
2022-11-07T00:17:04.591Z,36.03
2022-11-07T00:19:32.169Z,33.88
2022-11-07T00:22:00.882Z,35.10
2022-11-07T00:24:28.323Z,36.85
2022-11-07T00:26:55.929Z,32.35
2022-11-07T00:29:23.363Z,34.83
2022-11-07T00:31:50.868Z,35.78
2022-11-07T00:34:18.277Z,36.33
2022-11-07T00:36:45.664Z,33.45
2022-11-07T00:39:14.380Z,35.63
2022-11-07T00:41:41.789Z,33.80
2022-11-07T00:44:09.181Z,41.67
2022-11-07T00:46:36.641Z,35.55
2022-11-07T00:49:04.063Z,36.75
2022-11-07T00:51:32.063Z,39.35
2022-11-07T00:53:59.491Z,37.53
2022-11-07T00:56:28.215Z,37.85
2022-11-07T00:58:56.339Z,38.33
2022-11-07T01:01:25.795Z,34.35
2022-11-07T01:04:11.317Z,34.72
2022-11-07T01:06:40.095Z,36.72
2022-11-07T01:09:08.868Z,32.78
2022-11-07T01:11:39.044Z,36.10
2022-11-07T01:14:07.384Z,35.90
2022-11-07T01:16:35.446Z,33.83
2022-11-07T01:19:03.186Z,33.95
2022-11-07T01:21:30.605Z,35.28
2022-11-07T01:23:58.295Z,36.00
2022-11-07T01:26:25.689Z,30.70
2022-11-07T01:28:54.405Z,32.85
2022-11-07T01:31:21.952Z,33.80
2022-11-07T01:33:49.363Z,32.80
2022-11-07T01:36:18.344Z,29.65
2022-11-07T01:38:52.187Z,31.83
2022-11-07T01:43:56.871Z,31.33
2022-11-07T01:48:56.161Z,33.03
2022-11-07T01:51:24.434Z,29.60
2022-11-07T01:53:52.910Z,32.05
2022-11-07T01:56:24.868Z,30.67
2022-11-07T01:58:53.272Z,32.60
2022-11-07T02:01:22.059Z,30.48
2022-11-07T02:03:50.700Z,27.75
2022-11-07T02:06:22.127Z,33.45
2022-11-07T02:08:50.062Z,29.83
2022-11-07T02:11:18.419Z,28.60
2022-11-07T02:13:45.912Z,28.42
2022-11-07T02:16:13.411Z,28.77
2022-11-07T02:18:43.424Z,27.25
2022-11-07T02:21:17.698Z,28.98
2022-11-07T02:23:49.781Z,30.15
2022-11-07T02:26:18.939Z,28.45
2022-11-07T02:28:47.802Z,31.40
2022-11-07T02:31:15.192Z,29.92
2022-11-07T02:33:42.773Z,28.00
2022-11-07T02:36:15.370Z,30.33
2022-11-07T02:38:42.904Z,30.38
2022-11-07T02:41:13.379Z,28.92
2022-11-07T02:43:43.991Z,30.30
2022-11-07T02:46:13.196Z,27.27
2022-11-07T02:48:43.431Z,32.70
2022-11-07T02:51:11.029Z,28.90
2022-11-07T02:53:38.420Z,29.10
2022-11-07T02:56:06.701Z,29.45
2022-11-07T02:58:34.223Z,29.92
2022-11-07T03:01:06.874Z,29.35
2022-11-07T03:03:35.143Z,29.00
2022-11-07T03:06:02.799Z,28.63
2022-11-07T03:08:30.210Z,31.33
2022-11-07T03:10:57.741Z,27.02
2022-11-07T03:13:25.161Z,28.30
2022-11-07T03:15:53.823Z,28.85
2022-11-07T03:18:22.657Z,31.33
2022-11-07T03:20:51.265Z,31.95
2022-11-07T03:23:18.664Z,27.35
2022-11-07T03:25:46.068Z,30.08
2022-11-07T03:28:13.501Z,26.20
2022-11-07T03:30:41.119Z,26.67
2022-11-07T03:33:08.855Z,26.60
2022-11-07T03:35:37.586Z,27.33
2022-11-07T03:38:05.101Z,28.85
2022-11-07T03:40:32.510Z,25.83
2022-11-07T03:42:59.903Z,21.98
2022-11-07T03:45:27.376Z,23.25
2022-11-07T03:47:54.792Z,23.40
2022-11-07T03:50:22.779Z,23.33
2022-11-07T03:52:51.505Z,22.30
2022-11-07T03:55:19.032Z,21.77
2022-11-07T03:57:46.578Z,19.70
2022-11-07T04:00:15.297Z,18.83
2022-11-07T04:02:44.111Z,20.48
2022-11-07T04:05:12.184Z,20.40
2022-11-07T04:07:39.607Z,18.77
2022-11-07T04:10:08.631Z,21.65
2022-11-07T04:12:53.395Z,17.88
2022-11-07T04:15:38.160Z,17.70
2022-11-07T04:18:05.643Z,17.77
2022-11-07T04:20:33.044Z,17.55
2022-11-07T04:23:00.469Z,17.60
2022-11-07T04:25:47.038Z,17.83
2022-11-07T04:28:16.202Z,20.35
2022-11-07T04:30:43.572Z,17.80
2022-11-07T04:33:11.004Z,17.85
2022-11-07T04:35:38.405Z,18.52
2022-11-07T04:38:05.869Z,16.60
2022-11-07T04:40:34.617Z,18.55
2022-11-07T04:43:03.364Z,21.20
2022-11-07T04:45:30.773Z,16.70
2022-11-07T04:47:58.160Z,18.02
2022-11-07T04:50:25.564Z,19.15
2022-11-07T04:52:53.014Z,20.20
2022-11-07T04:55:22.577Z,16.67
2022-11-07T04:57:51.347Z,19.17
2022-11-07T05:00:20.352Z,18.25
2022-11-07T05:02:49.635Z,16.60
2022-11-07T05:05:17.640Z,15.63
2022-11-07T05:07:45.589Z,17.73
2022-11-07T05:10:18.094Z,15.55
2022-11-07T05:12:45.824Z,17.02
2022-11-07T05:15:14.775Z,18.20
2022-11-07T05:17:42.238Z,18.75
2022-11-07T05:20:18.899Z,17.42
2022-11-07T05:23:03.833Z,16.45
2022-11-07T05:25:31.220Z,18.55
2022-11-07T05:27:58.610Z,15.63
2022-11-07T05:30:27.345Z,16.42
2022-11-07T05:32:54.741Z,14.73
2022-11-07T05:35:22.141Z,14.73
2022-11-07T05:37:49.567Z,15.63
2022-11-07T05:40:17.090Z,16.30
2022-11-07T05:42:44.498Z,14.18
2022-11-07T05:45:12.080Z,14.55
2022-11-07T05:47:40.829Z,15.55
2022-11-07T05:50:09.208Z,16.65
2022-11-07T05:52:36.635Z,16.25
2022-11-07T05:55:04.271Z,13.70
2022-11-07T05:57:31.800Z,14.07
2022-11-07T05:59:59.269Z,15.77
2022-11-07T06:02:26.844Z,16.17
2022-11-07T06:04:56.816Z,12.95
2022-11-07T06:07:24.254Z,14.52
2022-11-07T06:09:51.654Z,15.40
2022-11-07T06:12:19.040Z,15.70
2022-11-07T06:14:46.428Z,18.73
2022-11-07T06:17:14.058Z,14.38
2022-11-07T06:19:41.441Z,13.35
2022-11-07T06:22:10.234Z,17.65
2022-11-07T06:24:37.637Z,15.23
2022-11-07T06:27:05.242Z,15.95
2022-11-07T06:29:32.679Z,14.13
2022-11-07T06:32:00.232Z,14.45
2022-11-07T06:34:27.752Z,14.77
2022-11-07T06:37:02.578Z,13.13
2022-11-07T06:39:32.060Z,14.32
2022-11-07T06:41:59.454Z,13.60
2022-11-07T06:44:26.968Z,10.90
2022-11-07T06:46:54.369Z,13.70
2022-11-07T06:49:21.775Z,13.82
2022-11-07T06:51:49.277Z,13.75
2022-11-07T06:54:16.876Z,11.65
2022-11-07T06:56:45.600Z,14.20
2022-11-07T06:59:13.007Z,11.63
2022-11-07T07:01:40.567Z,12.10
2022-11-07T07:04:10.314Z,10.80
2022-11-07T07:06:38.813Z,12.02
2022-11-07T07:09:06.905Z,11.48
2022-11-07T07:11:36.534Z,14.73
2022-11-07T07:14:10.261Z,10.75
2022-11-07T07:16:38.949Z,10.73
2022-11-07T07:19:06.504Z,11.10
2022-11-07T07:21:34.922Z,11.68
2022-11-07T07:24:02.349Z,8.93
2022-11-07T07:26:29.813Z,9.45
2022-11-07T07:28:57.197Z,9.48
2022-11-07T07:31:30.695Z,12.15
2022-11-07T07:33:58.334Z,7.78
2022-11-07T07:36:26.022Z,8.20
2022-11-07T07:38:53.712Z,10.05
2022-11-07T07:41:21.242Z,10.45
2022-11-07T07:43:48.702Z,8.75
2022-11-07T07:46:20.536Z,10.98
2022-11-07T07:48:49.367Z,9.23
2022-11-07T07:51:16.784Z,6.72
2022-11-07T07:53:44.195Z,7.22
2022-11-07T07:56:11.814Z,9.20
2022-11-07T07:58:39.202Z,10.73
2022-11-07T08:01:10.412Z,7.57
2022-11-07T08:03:59.689Z,9.15
2022-11-07T08:06:27.654Z,7.55
2022-11-07T08:08:55.048Z,10.82
2022-11-07T08:11:23.463Z,7.90
2022-11-07T08:13:50.865Z,6.93
2022-11-07T08:16:18.350Z,6.82
2022-11-07T08:18:45.740Z,8.45
2022-11-07T08:21:13.297Z,7.45
2022-11-07T08:23:42.042Z,8.38
2022-11-07T08:26:09.471Z,7.35
2022-11-07T08:28:37.089Z,8.63
2022-11-07T08:31:06.563Z,6.13
2022-11-07T08:33:34.179Z,7.53
2022-11-07T08:36:03.481Z,6.63
2022-11-07T08:38:32.558Z,7.43
2022-11-07T08:41:01.388Z,5.68
2022-11-07T08:43:29.012Z,7.05
2022-11-07T08:45:59.714Z,5.38
2022-11-07T08:48:27.232Z,6.22
2022-11-07T08:50:55.612Z,8.20
2022-11-07T08:53:24.028Z,4.70
2022-11-07T08:55:51.709Z,5.93
2022-11-07T08:58:22.668Z,6.50
2022-11-07T09:00:52.324Z,5.67
2022-11-07T09:06:07.745Z,5.75
2022-11-07T09:08:35.134Z,4.97
2022-11-07T09:11:03.873Z,5.15
2022-11-07T09:13:33.309Z,7.35
2022-11-07T09:16:01.666Z,6.78
2022-11-07T09:18:29.073Z,5.75
2022-11-07T09:20:56.508Z,4.60
2022-11-07T09:23:23.914Z,5.18
2022-11-07T09:25:51.370Z,11.27
2022-11-07T09:28:18.788Z,6.63
2022-11-07T09:30:47.508Z,4.05
2022-11-07T09:33:15.235Z,6.40
2022-11-07T09:35:42.830Z,6.07
2022-11-07T09:38:10.227Z,6.00
2022-11-07T09:40:44.755Z,5.88
2022-11-07T09:43:26.701Z,3.88
2022-11-07T09:46:03.278Z,5.90
2022-11-07T09:48:36.626Z,6.20
2022-11-07T09:51:04.844Z,10.00
2022-11-07T09:53:35.207Z,5.47
2022-11-07T09:56:05.336Z,9.25
2022-11-07T09:58:36.733Z,4.85
2022-11-07T10:01:06.862Z,3.75
2022-11-07T10:03:36.019Z,5.20
2022-11-07T10:06:07.828Z,5.60
2022-11-07T10:08:38.859Z,7.60
2022-11-07T10:11:10.610Z,6.45
2022-11-07T10:13:57.940Z,6.05
2022-11-07T10:16:33.785Z,5.20
2022-11-07T10:19:10.428Z,3.10
2022-11-07T10:21:44.616Z,5.38
2022-11-07T10:24:24.191Z,3.47
2022-11-07T10:26:51.625Z,8.48
2022-11-07T10:29:20.637Z,4.90
2022-11-07T10:31:56.513Z,5.85
2022-11-07T10:34:30.233Z,6.15
2022-11-07T10:37:04.501Z,4.43
2022-11-07T10:39:33.048Z,5.20
2022-11-07T10:42:03.229Z,9.60
2022-11-07T10:44:31.074Z,5.50
2022-11-07T10:46:59.858Z,5.18
2022-11-07T10:49:29.038Z,5.65
2022-11-07T10:52:06.356Z,3.97
2022-11-07T10:54:33.920Z,6.72
2022-11-07T10:57:03.708Z,5.53
2022-11-07T10:59:36.219Z,5.60
2022-11-07T11:02:20.418Z,4.38
2022-11-07T11:04:51.143Z,4.43
2022-11-07T11:07:21.803Z,4.03
2022-11-07T11:09:54.019Z,6.05
2022-11-07T11:12:25.112Z,6.18
2022-11-07T11:15:06.989Z,5.32
2022-11-07T11:17:35.732Z,5.47
2022-11-07T11:20:03.526Z,4.35
2022-11-07T11:22:31.002Z,7.18
2022-11-07T11:25:04.825Z,3.63
2022-11-07T11:27:34.652Z,4.45
2022-11-07T11:30:07.165Z,4.70
2022-11-07T11:32:40.077Z,4.20
2022-11-07T11:35:16.585Z,7.50
2022-11-07T11:37:48.342Z,6.68
2022-11-07T11:40:22.458Z,4.00
2022-11-07T11:42:54.134Z,3.47
2022-11-07T11:45:27.693Z,4.68
2022-11-07T11:48:01.289Z,6.97
2022-11-07T11:52:59.578Z,5.10
2022-11-07T11:55:31.264Z,5.68
2022-11-07T11:58:02.562Z,4.28
2022-11-07T12:00:33.104Z,4.95
2022-11-07T12:03:18.384Z,4.72
2022-11-07T12:05:59.461Z,3.75
2022-11-07T12:08:38.843Z,4.55
2022-11-07T12:11:13.088Z,6.82
2022-11-07T12:13:47.558Z,5.10
2022-11-07T12:16:21.167Z,6.88
2022-11-07T12:21:26.787Z,7.18
2022-11-07T12:24:03.883Z,5.90
2022-11-07T12:26:34.747Z,5.63
2022-11-07T12:29:09.338Z,6.82
2022-11-07T12:31:46.077Z,7.53
2022-11-07T12:34:24.019Z,11.32
2022-11-07T12:37:03.982Z,7.15
2022-11-07T12:39:42.601Z,5.95
2022-11-07T12:42:19.576Z,4.25
2022-11-07T12:44:57.585Z,5.65
2022-11-07T12:47:38.114Z,7.95
2022-11-07T12:50:14.883Z,8.57
2022-11-07T12:52:50.878Z,6.40
2022-11-07T12:55:21.955Z,4.82
2022-11-07T12:57:50.481Z,10.73
2022-11-07T13:00:24.558Z,8.40
2022-11-07T13:03:25.531Z,9.43
2022-11-07T13:06:06.234Z,7.28
2022-11-07T13:08:36.389Z,7.10
2022-11-07T13:11:06.667Z,6.47
2022-11-07T13:13:46.091Z,8.23
2022-11-07T13:16:24.286Z,7.18
2022-11-07T13:18:51.875Z,7.18
2022-11-07T13:21:26.158Z,7.45
2022-11-07T13:23:53.649Z,9.68
2022-11-07T13:26:54.118Z,10.10
2022-11-07T13:29:25.078Z,7.20
2022-11-07T13:32:04.958Z,10.48
2022-11-07T13:34:40.638Z,8.45
2022-11-07T13:37:16.244Z,5.90
2022-11-07T13:39:44.861Z,5.13
2022-11-07T13:42:15.839Z,7.43
2022-11-07T13:44:43.874Z,7.25
2022-11-07T13:47:16.190Z,12.73
2022-11-07T13:49:45.849Z,7.63
2022-11-07T13:52:18.543Z,7.60
2022-11-07T13:54:53.689Z,5.97
2022-11-07T13:57:24.833Z,8.32
2022-11-07T13:59:55.446Z,9.48
2022-11-07T14:02:24.412Z,10.20
2022-11-07T14:05:15.310Z,6.63
2022-11-07T14:07:43.815Z,11.35
2022-11-07T14:10:21.825Z,5.05
2022-11-07T14:12:49.368Z,10.52
2022-11-07T14:15:17.809Z,5.10
2022-11-07T14:17:46.550Z,6.80
2022-11-07T14:20:16.454Z,7.10
2022-11-07T14:22:53.375Z,10.38
2022-11-07T14:25:26.717Z,9.55
2022-11-07T14:27:54.287Z,7.43
2022-11-07T14:30:24.218Z,6.43
2022-11-07T14:32:53.438Z,6.95
2022-11-07T14:35:22.926Z,8.23
2022-11-07T14:37:51.851Z,7.85
2022-11-07T14:40:20.177Z,6.63
2022-11-07T14:42:48.195Z,8.27
2022-11-07T14:45:39.137Z,5.90
2022-11-07T14:48:06.622Z,11.35
2022-11-07T14:50:34.345Z,8.00
2022-11-07T14:53:06.280Z,7.63
2022-11-07T14:55:35.183Z,11.15
2022-11-07T14:58:03.469Z,11.70
2022-11-07T15:00:31.784Z,11.60
2022-11-07T15:03:00.108Z,11.32
2022-11-07T15:05:30.533Z,11.98
2022-11-07T15:07:59.829Z,9.00
2022-11-07T15:10:33.663Z,10.35
2022-11-07T15:15:31.863Z,9.05
2022-11-07T15:18:00.948Z,9.40
2022-11-07T15:20:37.022Z,9.13
2022-11-07T15:23:06.263Z,12.18
2022-11-07T15:25:37.792Z,8.43
2022-11-07T15:28:21.254Z,6.93
2022-11-07T15:30:49.558Z,9.07
2022-11-07T15:33:18.030Z,11.40
2022-11-07T15:35:46.645Z,11.23
2022-11-07T15:38:19.228Z,8.50
2022-11-07T15:40:48.723Z,8.53
2022-11-07T15:43:16.276Z,9.38
2022-11-07T15:45:44.321Z,7.70
2022-11-07T15:48:16.031Z,8.90
2022-11-07T15:50:44.765Z,7.50
2022-11-07T15:53:17.145Z,8.98
2022-11-07T15:55:44.642Z,7.25
2022-11-07T15:58:16.136Z,6.18
2022-11-07T16:00:43.908Z,10.23
2022-11-07T16:03:15.082Z,9.15
2022-11-07T16:05:43.317Z,8.88
2022-11-07T16:08:14.778Z,8.40
2022-11-07T16:10:45.037Z,10.40
2022-11-07T16:13:13.849Z,9.50
2022-11-07T16:15:43.654Z,8.05
2022-11-07T16:18:16.301Z,13.05
2022-11-07T16:20:44.067Z,9.25
2022-11-07T16:23:11.612Z,10.20
2022-11-07T16:25:40.950Z,9.63
2022-11-07T16:28:21.091Z,9.75
2022-11-07T16:30:48.501Z,8.30
2022-11-07T16:33:15.904Z,10.32
2022-11-07T16:35:43.382Z,10.20
2022-11-07T16:38:14.324Z,9.00
2022-11-07T16:40:42.441Z,8.02
2022-11-07T16:43:10.197Z,9.93
2022-11-07T16:45:41.628Z,7.45
2022-11-07T16:48:17.991Z,9.77
2022-11-07T16:50:45.655Z,11.50
2022-11-07T16:53:13.508Z,10.77
2022-11-07T16:55:41.474Z,9.68
2022-11-07T16:58:23.162Z,8.43
2022-11-07T17:00:52.376Z,12.75
2022-11-07T17:03:20.109Z,11.23
2022-11-07T17:05:47.993Z,10.60
2022-11-07T17:08:19.858Z,10.60
2022-11-07T17:10:47.405Z,13.43
2022-11-07T17:13:14.849Z,8.57
2022-11-07T17:15:42.838Z,9.75
2022-11-07T17:18:19.612Z,9.80
2022-11-07T17:20:51.922Z,6.60
2022-11-07T17:23:22.874Z,12.85
2022-11-07T17:25:54.293Z,11.10
2022-11-07T17:28:22.365Z,13.38
2022-11-07T17:30:49.839Z,8.25
2022-11-07T17:33:18.528Z,12.50
2022-11-07T17:35:45.990Z,9.68
2022-11-07T17:38:16.930Z,8.65
2022-11-07T17:40:44.695Z,12.30
2022-11-07T17:43:12.101Z,7.75
2022-11-07T17:45:39.537Z,6.93
2022-11-07T17:48:07.213Z,7.07
2022-11-07T17:50:35.965Z,12.50
2022-11-07T17:53:03.374Z,12.75
2022-11-07T17:55:30.790Z,13.73
2022-11-07T17:57:58.244Z,13.13
2022-11-07T18:00:27.108Z,10.82
2022-11-07T18:02:54.608Z,9.88
2022-11-07T18:05:24.096Z,18.25
2022-11-07T18:07:55.198Z,9.63
2022-11-07T18:10:22.730Z,9.68
2022-11-07T18:12:50.176Z,16.83
2022-11-07T18:15:17.616Z,15.88
2022-11-07T18:17:45.085Z,7.35
2022-11-07T18:20:13.286Z,9.05
2022-11-07T18:22:40.704Z,10.13
2022-11-07T18:25:09.997Z,11.68
2022-11-07T18:27:37.471Z,14.20
2022-11-07T18:30:06.021Z,9.27
2022-11-07T18:32:36.741Z,10.52
2022-11-07T18:35:05.856Z,8.57
2022-11-07T18:37:33.259Z,9.68
2022-11-07T18:40:00.658Z,10.02
2022-11-07T18:42:30.116Z,14.93
2022-11-07T18:44:57.693Z,14.77
2022-11-07T18:47:25.712Z,21.27
2022-11-07T18:49:57.093Z,21.13
2022-11-07T18:52:24.840Z,22.38
2022-11-07T18:54:52.537Z,19.80
2022-11-07T18:57:19.936Z,18.85
2022-11-07T18:59:48.763Z,11.52
2022-11-07T19:02:17.303Z,9.85
2022-11-07T19:04:44.959Z,10.75
2022-11-07T19:07:12.385Z,11.18
2022-11-07T19:09:39.807Z,11.70
2022-11-07T19:12:07.697Z,8.68
2022-11-07T19:14:35.250Z,12.77
2022-11-07T19:17:04.800Z,11.18
2022-11-07T19:19:33.592Z,12.80
2022-11-07T19:22:01.915Z,8.52
2022-11-07T19:24:29.436Z,10.20
2022-11-07T19:26:56.820Z,8.70
2022-11-07T19:29:24.653Z,9.05
2022-11-07T19:31:52.101Z,9.52
2022-11-07T19:34:21.087Z,6.28
2022-11-07T19:36:48.495Z,11.50
2022-11-07T19:39:15.967Z,10.77
2022-11-07T19:41:43.389Z,11.95
2022-11-07T19:44:11.028Z,7.93
2022-11-07T19:46:38.447Z,8.45
2022-11-07T19:49:05.887Z,13.40
2022-11-07T19:51:36.180Z,9.85
2022-11-07T19:54:04.395Z,6.80
2022-11-07T19:56:32.663Z,12.20
2022-11-07T19:59:01.259Z,9.48
2022-11-07T20:01:31.344Z,8.80
2022-11-07T20:03:59.123Z,10.88
2022-11-07T20:06:30.330Z,11.02
2022-11-07T20:08:59.263Z,10.45
2022-11-07T20:11:27.173Z,7.50
2022-11-07T20:14:00.139Z,11.40
2022-11-07T20:16:30.320Z,13.18
2022-11-07T20:18:57.739Z,5.65
2022-11-07T20:21:25.869Z,7.03
2022-11-07T20:23:54.453Z,9.65
2022-11-07T20:26:24.602Z,10.00
2022-11-07T20:28:52.704Z,7.63
2022-11-07T20:31:21.638Z,12.68
2022-11-07T20:33:49.274Z,8.65
2022-11-07T20:36:17.286Z,9.88
2022-11-07T20:38:45.466Z,8.88
2022-11-07T20:41:13.699Z,8.93
2022-11-07T20:43:43.640Z,8.93
2022-11-07T20:46:12.729Z,13.18
2022-11-07T20:48:40.158Z,8.80
2022-11-07T20:51:08.890Z,8.23
2022-11-07T20:53:37.776Z,9.25
2022-11-07T20:56:06.575Z,9.60
2022-11-07T20:58:34.168Z,11.45
2022-11-07T21:01:03.671Z,13.50
2022-11-07T21:03:31.221Z,8.40
2022-11-07T21:05:58.632Z,8.30
2022-11-07T21:08:26.101Z,9.40
2022-11-07T21:10:55.412Z,11.55
2022-11-07T21:13:22.886Z,10.73
2022-11-07T21:15:51.174Z,11.50
2022-11-07T21:18:20.062Z,10.18
2022-11-07T21:20:47.474Z,11.73
2022-11-07T21:23:15.612Z,13.30
2022-11-07T21:25:45.010Z,10.75
2022-11-07T21:28:16.882Z,10.55
2022-11-07T21:30:45.118Z,11.30
2022-11-07T21:33:13.095Z,9.90
2022-11-07T21:35:42.662Z,10.15
2022-11-07T21:38:10.172Z,10.55
2022-11-07T21:40:38.419Z,10.48
2022-11-07T21:43:05.841Z,9.63
2022-11-07T21:45:33.350Z,9.98
2022-11-07T21:48:00.874Z,5.75
2022-11-07T21:50:44.049Z,9.45
2022-11-07T21:53:13.816Z,8.15
2022-11-07T21:55:41.414Z,8.50
2022-11-07T21:58:08.842Z,12.35
2022-11-07T22:00:37.153Z,13.93
2022-11-07T22:03:05.127Z,9.90
2022-11-07T22:05:32.512Z,9.40
2022-11-07T22:08:00.144Z,10.75
2022-11-07T22:10:28.871Z,14.48
2022-11-07T22:12:56.276Z,14.07
2022-11-07T22:15:23.759Z,10.57
2022-11-07T22:17:51.204Z,9.35
2022-11-07T22:20:18.790Z,7.82
2022-11-07T22:22:46.186Z,11.60
2022-11-07T22:25:13.589Z,16.25
2022-11-07T22:27:42.330Z,11.07
2022-11-07T22:30:10.901Z,11.80
2022-11-07T22:32:38.311Z,10.18
2022-11-07T22:35:09.353Z,10.98
2022-11-07T22:37:37.014Z,8.57
2022-11-07T22:40:04.734Z,7.18
2022-11-07T22:42:32.152Z,13.13
2022-11-07T22:45:00.873Z,9.30
2022-11-07T22:47:28.317Z,10.48
2022-11-07T22:49:55.721Z,15.10
2022-11-07T22:52:23.166Z,12.65
2022-11-07T22:54:50.567Z,10.63
2022-11-07T22:57:18.247Z,7.57
2022-11-07T22:59:45.675Z,10.40
2022-11-07T23:02:14.558Z,8.68
2022-11-07T23:04:42.250Z,11.02
2022-11-07T23:07:09.655Z,12.50
2022-11-07T23:09:37.071Z,9.43
2022-11-07T23:12:04.660Z,10.25
2022-11-07T23:14:32.067Z,12.52
2022-11-07T23:16:59.488Z,9.38
2022-11-07T23:19:28.259Z,11.90
2022-11-07T23:21:56.906Z,12.27
2022-11-07T23:24:24.889Z,15.88
2022-11-07T23:26:52.277Z,10.02
2022-11-07T23:29:20.994Z,11.02
2022-11-07T23:31:50.143Z,11.90
2022-11-07T23:34:18.120Z,13.77
2022-11-07T23:36:46.998Z,11.48
2022-11-07T23:39:16.318Z,10.02
2022-11-07T23:41:44.013Z,13.38
2022-11-07T23:44:11.908Z,13.93
2022-11-07T23:46:57.249Z,6.45
2022-11-07T23:49:50.790Z,11.57
2022-11-07T23:52:19.569Z,6.13
2022-11-07T23:55:04.639Z,12.57
2022-11-07T23:57:34.930Z,11.20
